Time;durP1;ratioP1;P1;durP2;ratioP2;P2;SDS_P1;SDS_P2;PMS_P1;PMS_P2;Temp;Humidity;BMP_temperature;BMP_pressure;BME280_temperature;BME280_humidity;BME280_pressure;Samples;Min_cycle;Max_cycle;Signal;HPM_P1;HPM_P2
2023/06/24 00:00:37;;;;;;;5.20;4.90;;;;;;;20.74;100.00;99612.49;104966;1258;67082;-49
2023/06/24 00:03:07;;;;;;;5.20;4.90;;;;;;;20.71;100.00;99612.23;105149;1261;72724;-49
2023/06/24 00:05:35;;;;;;;5.60;4.80;;;;;;;20.71;100.00;99611.39;104540;1262;61666;-48
2023/06/24 00:08:06;;;;;;;5.20;4.90;;;;;;;20.72;100.00;99611.46;104339;1260;59253;-48
2023/06/24 00:10:34;;;;;;;6.00;5.60;;;;;;;20.75;100.00;99605.88;104843;1262;73048;-49
2023/06/24 00:13:02;;;;;;;4.90;4.60;;;;;;;20.79;100.00;99608.98;108445;1257;68002;-49
2023/06/24 00:15:29;;;;;;;6.10;5.70;;;;;;;20.84;100.00;99607.77;108497;1257;72477;-50
2023/06/24 00:18:05;;;;;;;5.50;5.20;;;;;;;20.85;100.00;99605.81;108525;1257;62383;-50
2023/06/24 00:20:33;;;;;;;4.80;4.50;;;;;;;20.85;100.00;99607.66;108629;1260;60023;-49
2023/06/24 00:23:01;;;;;;;7.00;5.80;;;;;;;20.85;100.00;99609.48;108689;1257;73024;-48
2023/06/24 00:25:29;;;;;;;5.80;5.50;;;;;;;20.85;100.00;99613.13;108647;1256;68786;-49
2023/06/24 00:27:56;;;;;;;5.40;5.10;;;;;;;20.87;100.00;99612.45;108650;1257;72612;-48
2023/06/24 00:30:23;;;;;;;6.20;5.80;;;;;;;20.90;100.00;99611.74;108684;1257;60797;-49
2023/06/24 00:32:51;;;;;;;6.00;5.50;;;;;;;20.95;100.00;99602.58;108801;1262;59088;-49
2023/06/24 00:35:18;;;;;;;6.40;6.00;;;;;;;21.00;100.00;99600.42;108702;1260;71757;-49
2023/06/24 00:37:47;;;;;;;6.10;5.50;;;;;;;21.06;100.00;99596.54;108432;1259;67922;-49
2023/06/24 00:40:16;;;;;;;6.60;6.20;;;;;;;21.12;100.00;99595.38;108636;1259;72420;-49
2023/06/24 00:42:44;;;;;;;5.60;5.30;;;;;;;21.19;100.00;99588.23;107439;1259;60443;-48
2023/06/24 00:45:12;;;;;;;6.50;6.10;;;;;;;21.26;100.00;99586.70;105023;1260;60489;-49
2023/06/24 00:47:40;;;;;;;8.80;6.20;;;;;;;21.31;100.00;99584.91;104912;1265;73763;-49
2023/06/24 00:50:08;;;;;;;7.00;6.60;;;;;;;21.36;100.00;99585.70;108630;1260;67974;-49
2023/06/24 00:52:37;;;;;;;6.20;5.90;;;;;;;21.38;100.00;99590.63;108740;1260;71749;-49
2023/06/24 00:55:04;;;;;;;5.80;5.50;;;;;;;21.37;100.00;99593.80;108639;1260;60388;-50
2023/06/24 00:57:31;;;;;;;6.40;6.00;;;;;;;21.37;100.00;99591.05;106127;1260;60383;-48
2023/06/24 00:59:59;;;;;;;5.60;5.30;;;;;;;21.37;100.00;99583.23;104853;1260;72579;-49
2023/06/24 01:02:27;;;;;;;5.60;5.20;;;;;;;21.38;100.00;99577.35;104871;1267;66664;-50
2023/06/24 01:04:56;;;;;;;5.20;5.00;;;;;;;21.38;100.00;99579.68;105367;1260;72453;-50
2023/06/24 01:07:24;;;;;;;6.80;5.60;;;;;;;21.39;100.00;99579.56;106050;1258;61954;-49
2023/06/24 01:09:51;;;;;;;5.80;5.40;;;;;;;21.39;100.00;99587.95;105007;1260;60568;-48
2023/06/24 01:12:19;;;;;;;6.10;5.70;;;;;;;21.39;100.00;99588.88;104898;1264;73866;-49
2023/06/24 01:14:46;;;;;;;5.80;5.50;;;;;;;21.38;100.00;99592.23;104891;1265;66784;-49
2023/06/24 01:17:23;;;;;;;7.00;6.40;;;;;;;21.38;100.00;99586.08;104900;1263;72701;-49
2023/06/24 01:20:10;;;;;;;6.40;5.80;;;;;;;21.38;100.00;99587.38;105650;1265;64268;-49
2023/06/24 01:22:47;;;;;;;6.00;5.60;;;;;;;21.38;100.00;99582.02;105020;1260;60572;-49
2023/06/24 01:25:34;;;;;;;7.20;6.70;;;;;;;21.40;100.00;99582.05;105030;1264;72567;-52
2023/06/24 01:28:15;;;;;;;6.00;5.50;;;;;;;21.41;100.00;99581.96;104984;1262;67244;-52
2023/06/24 01:31:23;;;;;;;7.10;6.30;;;;;;;21.39;100.00;99585.02;105001;1260;72949;-51
2023/06/24 01:33:56;;;;;;;5.50;5.10;;;;;;;21.35;100.00;99579.67;104996;1262;61717;-53
2023/06/24 01:36:24;;;;;;;7.10;6.60;;;;;;;21.32;100.00;99585.57;105017;1265;60847;-53
2023/06/24 01:38:53;;;;;;;5.60;5.30;;;;;;;21.30;100.00;99587.73;105371;1264;74470;-51
2023/06/24 01:41:22;;;;;;;6.40;6.00;;;;;;;21.28;100.00;99592.91;104852;1264;66791;-53
2023/06/24 01:43:52;;;;;;;5.80;5.40;;;;;;;21.25;100.00;99600.63;105227;1266;73494;-52
2023/06/24 01:46:23;;;;;;;5.70;5.20;;;;;;;21.23;100.00;99604.69;105417;1260;61754;-51
2023/06/24 01:48:51;;;;;;;8.10;5.30;;;;;;;21.19;100.00;99604.54;104990;1266;60775;-47
2023/06/24 01:51:20;;;;;;;7.00;6.40;;;;;;;21.13;100.00;99602.79;105224;1260;73810;-47
2023/06/24 01:53:52;;;;;;;6.80;6.00;;;;;;;21.10;100.00;99601.66;104863;1269;66372;-49
2023/06/24 01:56:20;;;;;;;5.40;5.10;;;;;;;21.08;100.00;99604.38;105036;1260;75702;-51
2023/06/24 01:58:48;;;;;;;5.50;5.20;;;;;;;21.07;100.00;99610.71;104905;1265;61006;-48
2023/06/24 02:01:15;;;;;;;6.70;6.10;;;;;;;21.03;100.00;99615.08;104845;1260;60556;-50
2023/06/24 02:03:43;;;;;;;6.10;5.60;;;;;;;20.99;100.00;99620.59;105024;1265;73819;-51
2023/06/24 02:06:11;;;;;;;6.40;5.90;;;;;;;20.94;100.00;99625.27;105067;1265;66548;-49
2023/06/24 02:08:39;;;;;;;6.40;5.80;;;;;;;20.90;100.00;99625.62;104832;1267;72763;-48
2023/06/24 02:11:06;;;;;;;5.50;5.20;;;;;;;20.86;100.00;99629.98;105000;1260;61713;-49
2023/06/24 02:13:35;;;;;;;5.80;5.00;;;;;;;20.84;100.00;99637.88;104786;1260;60582;-51
2023/06/24 02:16:03;;;;;;;5.50;5.20;;;;;;;20.84;100.00;99640.83;104810;1265;73821;-48
2023/06/24 02:18:30;;;;;;;5.20;4.80;;;;;;;20.84;100.00;99642.83;105434;1263;66308;-52
2023/06/24 02:20:58;;;;;;;5.20;4.80;;;;;;;20.85;100.00;99637.38;104913;1260;72667;-50
2023/06/24 02:23:25;;;;;;;5.80;4.90;;;;;;;20.89;100.00;99635.05;104747;1268;61650;-49
2023/06/24 02:25:53;;;;;;;5.40;5.10;;;;;;;20.92;100.00;99635.88;104710;1258;60660;-50
2023/06/24 02:28:20;;;;;;;6.00;5.50;;;;;;;20.94;100.00;99642.55;105036;1260;72532;-46
2023/06/24 02:30:47;;;;;;;5.10;4.70;;;;;;;20.96;100.00;99640.73;104937;1273;67002;-47
2023/06/24 02:33:15;;;;;;;5.70;5.20;;;;;;;20.98;100.00;99646.77;105074;1265;72679;-49
2023/06/24 02:35:45;;;;;;;5.40;4.90;;;;;;;21.00;100.00;99650.04;104979;1260;61693;-46
2023/06/24 02:38:12;;;;;;;5.70;5.20;;;;;;;21.03;100.00;99651.42;105582;1264;60562;-47
2023/06/24 02:40:39;;;;;;;5.80;5.40;;;;;;;21.05;100.00;99653.20;104708;1267;73861;-47
2023/06/24 02:43:07;;;;;;;5.50;5.00;;;;;;;21.06;100.00;99653.63;104911;1265;67794;-50
2023/06/24 02:45:36;;;;;;;5.50;4.70;;;;;;;21.10;100.00;99656.98;105532;1262;72927;-47
2023/06/24 02:48:04;;;;;;;5.10;4.70;;;;;;;21.12;100.00;99657.98;104864;1260;61601;-48
2023/06/24 02:50:31;;;;;;;4.40;4.10;;;;;;;21.16;100.00;99657.90;105180;1265;60461;-48
2023/06/24 02:52:59;;;;;;;4.60;4.30;;;;;;;21.19;100.00;99655.09;106540;1263;73892;-48
2023/06/24 02:55:29;;;;;;;4.50;3.80;;;;;;;21.21;100.00;99651.45;104920;1265;68433;-50
2023/06/24 02:58:02;;;;;;;4.90;4.50;;;;;;;21.23;100.00;99654.70;104858;1266;72153;-47
2023/06/24 03:00:43;;;;;;;5.50;4.00;;;;;;;21.25;100.00;99651.92;104728;1260;61657;-47
2023/06/24 03:03:10;;;;;;;4.80;4.50;;;;;;;21.28;100.00;99653.34;105000;1260;60553;-49
2023/06/24 03:05:48;;;;;;;5.10;4.60;;;;;;;21.29;100.00;99653.23;108672;1260;73930;-50
2023/06/24 03:08:16;;;;;;;4.70;4.40;;;;;;;21.28;100.00;99654.00;108556;1260;67985;-49
2023/06/24 03:10:43;;;;;;;4.60;4.30;;;;;;;21.28;100.00;99657.11;108609;1257;71484;-47
2023/06/24 03:13:15;;;;;;;4.00;3.70;;;;;;;21.30;100.00;99666.27;108534;1260;60391;-48
2023/06/24 03:15:45;;;;;;;4.80;4.50;;;;;;;21.32;100.00;99681.19;108642;1260;60795;-48
2023/06/24 03:18:12;;;;;;;5.00;4.50;;;;;;;21.34;100.00;99689.82;108685;1260;73812;-48
2023/06/24 03:20:40;;;;;;;5.10;3.80;;;;;;;21.34;100.00;99694.33;108591;1260;66589;-49
2023/06/24 03:23:10;;;;;;;3.60;3.10;;;;;;;21.35;100.00;99703.11;108655;1260;73131;-49
2023/06/24 03:25:38;;;;;;;9.20;3.50;;;;;;;21.38;100.00;99694.67;107157;1264;60937;-51
2023/06/24 03:28:07;;;;;;;3.30;3.10;;;;;;;21.41;100.00;99700.60;104972;1260;60025;-46
2023/06/24 03:30:39;;;;;;;5.30;3.20;;;;;;;21.44;100.00;99692.40;108581;1262;74118;-50
2023/06/24 03:33:06;;;;;;;3.30;3.00;;;;;;;21.48;100.00;99691.13;108639;1257;68241;-48
2023/06/24 03:35:33;;;;;;;2.80;2.60;;;;;;;21.52;100.00;99689.70;108596;1260;72112;-47
2023/06/24 03:38:03;;;;;;;3.50;3.10;;;;;;;21.57;100.00;99687.38;108602;1258;61789;-50
2023/06/24 03:40:34;;;;;;;3.90;3.40;;;;;;;21.63;100.00;99691.58;108724;1258;58796;-50
2023/06/24 03:43:02;;;;;;;6.50;2.70;;;;;;;21.66;100.00;99695.83;108595;1264;74158;-49
2023/06/24 03:45:30;;;;;;;5.30;3.00;;;;;;;21.71;100.00;99691.73;108722;1257;68062;-47
2023/06/24 03:47:58;;;;;;;10.50;2.80;;;;;;;21.75;100.00;99692.84;108798;1254;72161;-48
2023/06/24 03:50:25;;;;;;;3.40;2.10;;;;;;;21.78;100.00;99690.88;108945;1254;61159;-49
2023/06/24 03:52:53;;;;;;;3.30;2.20;;;;;;;21.82;100.00;99689.74;108847;1254;58940;-48
2023/06/24 03:55:21;;;;;;;4.00;2.60;;;;;;;21.86;100.00;99706.33;106848;1260;72748;-46
2023/06/24 03:57:48;;;;;;;2.60;2.40;;;;;;;21.90;100.00;99713.27;105388;1261;67603;-50
2023/06/24 04:00:20;;;;;;;6.90;3.00;;;;;;;21.93;100.00;99720.66;105350;1259;72811;-48
2023/06/24 04:02:48;;;;;;;2.90;2.40;;;;;;;21.97;100.00;99729.24;105415;1254;61629;-49
2023/06/24 04:05:15;;;;;;;6.90;2.30;;;;;;;22.01;100.00;99730.52;105353;1261;60539;-50
2023/06/24 04:07:46;;;;;;;6.00;2.20;;;;;;;22.05;100.00;99736.84;105238;1259;73777;-50
2023/06/24 04:10:17;;;;;;;2.40;2.30;;;;;;;22.09;100.00;99737.98;105730;1259;67877;-47
2023/06/24 04:12:45;;;;;;;8.90;2.10;;;;;;;22.13;100.00;99735.35;105374;1258;71217;-48
2023/06/24 04:15:13;;;;;;;3.80;1.60;;;;;;;22.18;100.00;99743.27;105394;1255;60565;-47
2023/06/24 04:17:40;;;;;;;3.70;2.70;;;;;;;22.23;100.00;99744.95;105273;1254;60445;-49
2023/06/24 04:20:09;;;;;;;3.90;2.30;;;;;;;22.29;100.00;99743.85;108804;1253;74216;-49
2023/06/24 04:22:37;;;;;;;4.40;2.00;;;;;;;22.34;100.00;99740.05;106934;1260;65844;-48
2023/06/24 04:25:06;;;;;;;5.60;1.40;;;;;;;22.40;100.00;99738.07;105810;1258;71792;-48
2023/06/24 04:27:34;;;;;;;6.50;1.50;;;;;;;22.44;100.00;99735.86;105184;1260;61261;-50
2023/06/24 04:30:02;;;;;;;2.80;1.00;;;;;;;22.43;100.00;99737.19;105321;1255;60604;-51
2023/06/24 04:32:29;;;;;;;2.30;1.50;;;;;;;22.44;100.00;99743.64;105112;1262;73839;-48
2023/06/24 04:34:59;;;;;;;2.70;1.40;;;;;;;22.46;100.00;99742.21;105131;1262;67231;-52
2023/06/24 04:37:26;;;;;;;6.40;1.70;;;;;;;22.47;100.00;99741.48;105407;1260;72696;-50
2023/06/24 04:39:54;;;;;;;6.90;1.40;;;;;;;22.48;100.00;99739.65;105309;1261;61750;-49
2023/06/24 04:42:22;;;;;;;6.50;1.40;;;;;;;22.46;100.00;99743.30;105121;1256;60741;-48
2023/06/24 04:44:50;;;;;;;3.10;1.30;;;;;;;22.44;100.00;99748.67;105501;1260;73779;-47
2023/06/24 04:47:18;;;;;;;2.30;1.20;;;;;;;22.43;100.00;99752.77;108807;1257;67509;-50
2023/06/24 04:49:46;;;;;;;2.40;1.50;;;;;;;22.44;100.00;99760.14;108848;1259;73079;-52
2023/06/24 04:52:13;;;;;;;2.70;1.30;;;;;;;22.46;100.00;99751.33;105797;1263;61328;-48
2023/06/24 04:54:41;;;;;;;2.70;1.60;;;;;;;22.48;100.00;99745.61;105324;1259;59683;-49
2023/06/24 04:57:09;;;;;;;6.00;1.50;;;;;;;22.53;100.00;99744.79;106621;1259;73877;-48
2023/06/24 04:59:38;;;;;;;2.40;1.10;;;;;;;22.60;100.00;99740.66;105585;1259;66488;-47
2023/06/24 05:02:05;;;;;;;4.40;1.00;;;;;;;22.69;100.00;99743.21;105603;1259;72737;-50
2023/06/24 05:04:32;;;;;;;3.20;1.00;;;;;;;22.79;100.00;99748.30;105247;1260;62656;-48
2023/06/24 05:07:00;;;;;;;4.80;1.40;;;;;;;22.87;100.00;99747.60;105245;1260;60446;-48
2023/06/24 05:09:27;;;;;;;3.00;1.10;;;;;;;22.94;100.00;99753.50;105200;1255;75539;-49
2023/06/24 05:11:54;;;;;;;2.30;1.10;;;;;;;23.01;100.00;99755.81;105124;1254;69079;-49
2023/06/24 05:14:22;;;;;;;4.50;1.20;;;;;;;23.07;100.00;99759.93;105125;1260;72663;-49
2023/06/24 05:16:49;;;;;;;6.50;1.50;;;;;;;23.11;100.00;99762.45;104962;1260;60609;-49
2023/06/24 05:19:16;;;;;;;4.50;1.00;;;;;;;23.13;100.00;99758.39;105144;1260;60536;-48
2023/06/24 05:21:44;;;;;;;9.10;1.20;;;;;;;23.15;100.00;99762.77;105160;1269;73892;-51
2023/06/24 05:24:11;;;;;;;1.50;0.90;;;;;;;23.18;100.00;99768.20;105447;1260;67583;-48
2023/06/24 05:26:38;;;;;;;5.40;1.40;;;;;;;23.21;100.00;99774.52;105227;1259;72684;-48
2023/06/24 05:29:06;;;;;;;1.80;1.00;;;;;;;23.24;100.00;99775.42;105117;1260;63664;-48
2023/06/24 05:31:33;;;;;;;3.30;0.90;;;;;;;23.28;100.00;99778.27;105208;1254;60497;-48
2023/06/24 05:34:00;;;;;;;5.40;1.00;;;;;;;23.32;100.00;99774.81;105130;1260;73845;-50
2023/06/24 05:36:28;;;;;;;4.90;1.20;;;;;;;23.35;100.00;99777.25;105267;1261;69157;-50
2023/06/24 05:38:55;;;;;;;1.60;0.80;;;;;;;23.39;100.00;99782.71;105232;1259;72795;-47
2023/06/24 05:41:22;;;;;;;2.60;1.00;;;;;;;23.42;100.00;99786.79;105208;1257;61688;-51
2023/06/24 05:43:59;;;;;;;3.00;1.10;;;;;;;23.44;100.00;99795.00;105095;1257;60463;-47
2023/06/24 05:46:26;;;;;;;3.70;1.20;;;;;;;23.48;100.00;99793.89;105792;1254;74275;-51
2023/06/24 05:48:53;;;;;;;1.50;0.90;;;;;;;23.50;100.00;99792.93;105267;1259;67568;-47
2023/06/24 05:51:20;;;;;;;2.70;0.90;;;;;;;23.51;100.00;99787.23;105108;1258;74414;-46
2023/06/24 05:53:50;;;;;;;4.20;1.80;;;;;;;23.51;100.00;99789.77;105248;1257;61736;-47
2023/06/24 05:56:17;;;;;;;3.10;1.30;;;;;;;23.52;100.00;99792.60;105262;1260;60457;-51
2023/06/24 05:58:45;;;;;;;2.70;0.80;;;;;;;23.54;100.00;99801.60;105090;1259;74362;-51
2023/06/24 06:01:12;;;;;;;3.60;0.80;;;;;;;23.56;100.00;99803.15;105153;1254;67948;-47
2023/06/24 06:03:39;;;;;;;1.70;0.80;;;;;;;23.58;100.00;99808.03;105111;1257;71411;-49
2023/06/24 06:06:07;;;;;;;3.50;0.90;;;;;;;23.61;100.00;99810.15;105160;1260;62763;-48
2023/06/24 06:08:34;;;;;;;2.20;0.80;;;;;;;23.64;100.00;99816.61;105225;1257;60560;-46
2023/06/24 06:11:04;;;;;;;1.80;1.00;;;;;;;23.65;100.00;99817.58;105155;1260;74276;-49
2023/06/24 06:13:32;;;;;;;3.20;1.00;;;;;;;23.68;100.00;99814.61;105316;1258;67403;-51
2023/06/24 06:16:00;;;;;;;1.30;1.10;;;;;;;23.70;100.00;99809.98;105080;1259;73780;-48
2023/06/24 06:18:27;;;;;;;4.70;0.80;;;;;;;23.72;100.00;99808.11;105249;1262;60522;-48
2023/06/24 06:20:55;;;;;;;2.40;0.80;;;;;;;23.75;100.00;99811.80;108798;1254;60067;-49
2023/06/24 06:23:22;;;;;;;1.90;0.90;;;;;;;23.80;100.00;99812.86;108723;1258;74530;-51
2023/06/24 06:25:49;;;;;;;2.00;0.80;;;;;;;23.84;100.00;99817.31;108696;1254;65721;-50
2023/06/24 06:28:17;;;;;;;2.30;0.70;;;;;;;23.87;100.00;99816.44;108774;1254;72484;-49
2023/06/24 06:30:44;;;;;;;2.40;0.80;;;;;;;23.88;100.00;99817.06;108693;1258;59779;-53
2023/06/24 06:33:11;;;;;;;3.40;1.10;;;;;;;23.89;100.00;99816.80;108741;1254;58868;-50
2023/06/24 06:35:39;;;;;;;3.80;0.80;;;;;;;23.89;100.00;99817.87;108848;1257;73881;-49
2023/06/24 06:38:06;;;;;;;2.30;0.80;;;;;;;23.91;100.00;99823.61;109114;1257;66281;-49
2023/06/24 06:40:35;;;;;;;7.10;1.20;;;;;;;23.93;100.00;99821.70;108992;1256;73158;-52
2023/06/24 06:43:02;;;;;;;5.00;1.20;;;;;;;23.97;100.00;99824.61;108988;1254;62058;-51
2023/06/24 06:45:29;;;;;;;1.00;0.70;;;;;;;23.99;100.00;99827.88;108826;1256;59830;-51
2023/06/24 06:47:58;;;;;;;1.60;0.80;;;;;;;24.02;100.00;99826.29;108962;1257;73855;-49
2023/06/24 06:50:26;;;;;;;2.10;0.80;;;;;;;24.06;100.00;99827.27;106499;1260;66440;-52
2023/06/24 06:52:54;;;;;;;2.30;1.20;;;;;;;24.12;100.00;99829.61;104813;1259;73103;-49
2023/06/24 06:55:21;;;;;;;3.80;0.90;;;;;;;24.13;100.00;99827.81;104691;1254;63329;-50
2023/06/24 06:57:49;;;;;;;7.60;1.10;;;;;;;24.15;100.00;99824.54;104692;1259;60386;-48
2023/06/24 07:00:16;;;;;;;2.50;0.80;;;;;;;24.18;100.00;99825.70;104838;1256;72567;-50
2023/06/24 07:02:43;;;;;;;5.10;0.90;;;;;;;24.22;100.00;99817.66;104770;1260;67209;-48
2023/06/24 07:05:11;;;;;;;4.00;1.00;;;;;;;24.25;100.00;99817.86;104699;1257;72927;-47
2023/06/24 07:07:38;;;;;;;5.00;1.40;;;;;;;24.27;100.00;99818.56;104822;1259;61907;-50
2023/06/24 07:10:06;;;;;;;3.90;0.90;;;;;;;24.30;100.00;99822.31;104813;1254;60591;-47
2023/06/24 07:12:33;;;;;;;1.90;0.80;;;;;;;24.34;100.00;99828.42;105455;1254;72124;-48
2023/06/24 07:15:00;;;;;;;3.70;1.60;;;;;;;24.40;100.00;99833.56;104584;1260;67582;-51
2023/06/24 07:17:28;;;;;;;5.80;1.30;;;;;;;24.44;100.00;99833.59;104623;1254;73158;-49
2023/06/24 07:19:55;;;;;;;5.60;1.40;;;;;;;24.50;100.00;99831.57;105192;1255;60502;-50
2023/06/24 07:22:22;;;;;;;5.70;1.40;;;;;;;24.54;100.00;99840.85;105304;1257;61319;-48
2023/06/24 07:24:50;;;;;;;2.20;0.80;;;;;;;24.58;100.00;99848.11;105279;1260;73784;-48
2023/06/24 07:27:17;;;;;;;2.30;0.90;;;;;;;24.63;100.00;99857.67;105169;1257;66787;-48
2023/06/24 07:29:44;;;;;;;2.60;0.80;;;;;;;24.68;100.00;99861.39;105167;1254;71653;-49
2023/06/24 07:32:12;;;;;;;2.00;1.00;;;;;;;24.73;100.00;99864.52;105231;1254;61657;-47
2023/06/24 07:34:39;;;;;;;3.60;1.20;;;;;;;24.77;100.00;99862.45;105287;1258;60698;-49
2023/06/24 07:37:07;;;;;;;3.40;1.70;;;;;;;24.82;100.00;99869.05;105308;1257;73867;-47
2023/06/24 07:39:49;;;;;;;5.70;1.20;;;;;;;24.88;100.00;99872.09;105563;1260;67243;-48
2023/06/24 07:42:18;;;;;;;2.80;0.80;;;;;;;24.93;100.00;99878.03;104988;1254;72113;-49
2023/06/24 07:44:47;;;;;;;3.90;1.20;;;;;;;24.97;100.00;99876.11;105263;1254;61669;-48
2023/06/24 07:47:16;;;;;;;2.00;1.30;;;;;;;25.03;100.00;99884.27;105286;1257;60428;-48
2023/06/24 07:49:43;;;;;;;3.70;1.10;;;;;;;25.12;100.00;99886.63;105835;1260;73823;-48
2023/06/24 07:52:11;;;;;;;3.10;1.10;;;;;;;25.22;100.00;99889.05;105154;1260;66293;-47
2023/06/24 07:54:38;;;;;;;3.20;0.90;;;;;;;25.33;100.00;99889.77;105107;1254;71770;-47
2023/06/24 07:57:06;;;;;;;2.60;1.20;;;;;;;25.45;100.00;99888.38;105269;1260;60767;-47
2023/06/24 07:59:33;;;;;;;2.90;1.10;;;;;;;25.60;100.00;99888.80;105207;1254;60527;-48
2023/06/24 08:02:00;;;;;;;5.40;1.00;;;;;;;25.75;100.00;99895.05;105402;1254;73197;-47
2023/06/24 08:04:27;;;;;;;7.60;1.60;;;;;;;25.85;100.00;99892.65;105314;1256;67927;-50
2023/06/24 08:06:55;;;;;;;3.80;1.10;;;;;;;25.89;100.00;99892.35;105324;1261;72932;-48
2023/06/24 08:09:22;;;;;;;3.20;1.00;;;;;;;25.92;100.00;99901.02;105282;1260;60471;-51
2023/06/24 08:11:50;;;;;;;3.50;0.90;;;;;;;25.95;100.00;99899.45;105259;1254;60456;-49
2023/06/24 08:14:17;;;;;;;5.50;1.40;;;;;;;25.95;100.00;99902.52;105242;1254;75129;-51
2023/06/24 08:16:44;;;;;;;3.10;1.00;;;;;;;25.96;100.00;99902.05;104886;1260;65811;-51
2023/06/24 08:19:12;;;;;;;5.00;1.00;;;;;;;25.96;100.00;99907.39;104713;1257;72959;-51
2023/06/24 08:21:40;;;;;;;4.20;1.00;;;;;;;25.96;100.00;99902.48;104827;1258;60587;-47
2023/06/24 08:24:08;;;;;;;2.50;1.10;;;;;;;25.96;100.00;99901.48;105027;1253;61031;-52
2023/06/24 08:26:35;;;;;;;3.40;1.20;;;;;;;25.99;100.00;99898.96;105037;1257;73787;-51
2023/06/24 08:29:03;;;;;;;1.80;1.00;;;;;;;26.03;100.00;99901.16;104940;1256;67653;-49
2023/06/24 08:31:31;;;;;;;4.40;1.70;;;;;;;26.07;100.00;99902.20;105770;1257;71162;-51
2023/06/24 08:34:06;;;;;;;2.10;1.40;;;;;;;26.12;100.00;99900.14;105002;1254;60558;-50
2023/06/24 08:36:33;;;;;;;3.80;1.10;;;;;;;26.17;100.00;99903.41;105031;1254;60602;-50
2023/06/24 08:39:00;;;;;;;4.50;1.30;;;;;;;26.21;100.00;99906.64;105099;1254;73855;-50
2023/06/24 08:41:27;;;;;;;2.20;1.30;;;;;;;26.20;100.00;99903.06;105164;1259;66042;-52
2023/06/24 08:43:55;;;;;;;3.00;1.10;;;;;;;26.17;100.00;99899.92;104977;1254;72478;-50
2023/06/24 08:46:24;;;;;;;4.20;1.20;;;;;;;26.19;100.00;99891.69;104640;1257;629164;-52
2023/06/24 08:50:19;;;;;;;4.70;1.20;;;;;;;26.27;100.00;99898.13;102111;1295;600858;-49
2023/06/24 08:52:49;;;;;;;1.80;1.10;;;;;;;26.25;100.00;99899.40;104264;1270;60546;-49
2023/06/24 08:55:17;;;;;;;1.80;1.10;;;;;;;26.20;100.00;99899.78;104436;1280;59142;-47
2023/06/24 08:57:44;;;;;;;2.80;1.20;;;;;;;26.14;100.00;99897.52;104342;1273;72265;-49
2023/06/24 09:00:12;;;;;;;1.80;1.10;;;;;;;26.08;100.00;99891.98;104385;1272;68028;-49
2023/06/24 09:02:39;;;;;;;5.00;1.30;;;;;;;26.02;100.00;99891.89;104178;1267;72924;-48
2023/06/24 09:05:07;;;;;;;3.90;1.20;;;;;;;25.93;100.00;99892.27;104097;1270;232420;-49
2023/06/24 09:07:36;;;;;;;4.60;1.50;;;;;;;25.89;100.00;99890.20;108231;1264;59994;-52
2023/06/24 09:10:04;;;;;;;2.00;1.20;;;;;;;25.83;100.00;99889.05;108311;1263;72262;-50
2023/06/24 09:12:32;;;;;;;3.90;1.80;;;;;;;25.78;100.00;99893.41;107544;1264;66579;-48
2023/06/24 09:15:00;;;;;;;3.20;1.30;;;;;;;25.73;100.00;99892.33;105606;1264;72623;-52
2023/06/24 09:17:28;;;;;;;6.00;1.70;;;;;;;25.69;100.00;99890.38;103959;1264;62225;-50
2023/06/24 09:20:05;;;;;;;2.80;1.10;;;;;;;25.66;100.00;99885.08;104742;1263;60258;-48
2023/06/24 09:22:33;;;;;;;2.20;0.90;;;;;;;25.60;100.00;99887.15;108766;1260;71817;-50
2023/06/24 09:25:00;;;;;;;4.70;1.50;;;;;;;25.56;100.00;99886.83;108797;1257;67926;-51
2023/06/24 09:27:30;;;;;;;5.90;1.80;;;;;;;25.54;100.00;99889.73;108747;1257;71376;-51
2023/06/24 09:29:58;;;;;;;2.90;1.70;;;;;;;25.54;100.00;99891.73;108736;1257;60823;-50
2023/06/24 09:32:31;;;;;;;6.00;1.30;;;;;;;25.54;100.00;99891.61;108850;1257;60033;-50
2023/06/24 09:34:59;;;;;;;3.80;1.80;;;;;;;25.53;100.00;99893.02;108746;1257;73524;-49
2023/06/24 09:37:32;;;;;;;2.80;1.40;;;;;;;25.52;100.00;99896.46;108620;1258;66454;-49
2023/06/24 09:40:01;;;;;;;2.40;1.40;;;;;;;25.49;100.00;99894.21;108625;1259;71397;-52
2023/06/24 09:42:28;;;;;;;2.10;1.50;;;;;;;25.46;100.00;99895.66;108723;1257;61028;-48
2023/06/24 09:44:55;;;;;;;2.60;1.40;;;;;;;25.41;100.00;99890.86;108654;1257;59208;-49
2023/06/24 09:47:27;;;;;;;3.90;1.30;;;;;;;25.38;100.00;99885.61;108635;1256;73031;-51
2023/06/24 09:49:54;;;;;;;6.20;2.00;;;;;;;25.38;100.00;99882.13;108666;1257;66730;-50
2023/06/24 09:52:22;;;;;;;1.30;1.10;;;;;;;25.38;100.00;99881.08;108804;1258;71703;-48
2023/06/24 09:54:51;;;;;;;2.80;1.10;;;;;;;25.36;100.00;99877.95;108788;1259;60368;-48
2023/06/24 09:57:20;;;;;;;4.00;1.30;;;;;;;25.33;100.00;99876.61;108849;1255;58816;-50
2023/06/24 09:59:48;;;;;;;6.50;1.50;;;;;;;25.31;100.00;99869.95;108184;1257;73060;-48
2023/06/24 10:02:15;;;;;;;3.80;1.90;;;;;;;25.32;100.00;99865.23;104942;1263;68137;-49
2023/06/24 10:04:43;;;;;;;2.50;1.50;;;;;;;25.35;100.00;99863.39;105086;1263;72666;-47
2023/06/24 10:07:10;;;;;;;1.50;1.30;;;;;;;25.41;100.00;99867.86;105206;1261;61462;-49
2023/06/24 10:09:38;;;;;;;3.20;1.70;;;;;;;25.52;100.00;99862.29;105331;1258;60013;-48
2023/06/24 10:12:06;;;;;;;5.30;1.60;;;;;;;25.64;100.00;99857.30;106085;1259;73017;-47
2023/06/24 10:14:33;;;;;;;2.60;1.20;;;;;;;25.78;100.00;99854.84;104917;1260;66990;-48
2023/06/24 10:17:04;;;;;;;2.90;1.30;;;;;;;25.93;100.00;99850.95;105083;1257;72424;-49
2023/06/24 10:19:37;;;;;;;6.20;1.80;;;;;;;26.10;100.00;99852.39;105368;1264;60027;-49
2023/06/24 10:22:08;;;;;;;3.20;1.60;;;;;;;26.23;100.00;99846.68;105386;1258;60091;-49
2023/06/24 10:24:37;;;;;;;1.90;1.00;;;;;;;26.31;100.00;99843.71;105129;1263;73088;-49
2023/06/24 10:27:15;;;;;;;1.40;1.10;;;;;;;26.37;100.00;99835.70;105502;1257;66627;-50
2023/06/24 10:29:46;;;;;;;5.60;2.10;;;;;;;26.37;100.00;99835.36;105158;1259;71217;-52
2023/06/24 10:32:14;;;;;;;2.30;1.50;;;;;;;26.37;100.00;99833.28;105114;1257;60283;-47
2023/06/24 10:34:42;;;;;;;2.10;1.40;;;;;;;26.40;100.00;99836.91;105038;1258;59926;-49
2023/06/24 10:37:10;;;;;;;5.70;1.20;;;;;;;26.45;100.00;99824.33;105101;1257;73420;-51
2023/06/24 10:39:54;;;;;;;1.90;1.40;;;;;;;26.54;100.00;99821.70;105250;1257;67907;-49
2023/06/24 10:42:48;;;;;;;5.80;1.70;;;;;;;26.61;100.00;99813.89;105374;1263;73129;-48
2023/06/24 10:45:17;;;;;;;4.30;1.30;;;;;;;26.69;100.00;99810.56;105077;1258;59999;-47
2023/06/24 10:47:45;;;;;;;1.90;1.40;;;;;;;26.77;100.00;99812.61;105262;1258;60631;-49
2023/06/24 10:50:13;;;;;;;1.70;1.60;;;;;;;26.79;100.00;99810.67;105448;1263;75367;-48
2023/06/24 10:52:45;;;;;;;2.90;1.70;;;;;;;26.78;100.00;99811.86;105407;1258;67070;-47
2023/06/24 10:55:16;;;;;;;2.50;1.70;;;;;;;26.79;100.00;99804.08;105167;1259;71887;-49
2023/06/24 10:57:44;;;;;;;2.50;1.50;;;;;;;26.84;100.00;99796.98;105067;1260;60236;-49
2023/06/24 11:00:15;;;;;;;1.50;1.40;;;;;;;26.88;100.00;99795.45;105253;1258;60365;-48
2023/06/24 11:02:42;;;;;;;2.80;2.00;;;;;;;26.88;100.00;99785.64;105100;1257;72976;-49
2023/06/24 11:05:09;;;;;;;1.60;1.40;;;;;;;26.86;100.00;99781.33;105264;1257;66907;-51
2023/06/24 11:07:37;;;;;;;1.60;1.40;;;;;;;26.86;100.00;99780.77;105147;1263;71233;-48
2023/06/24 11:10:06;;;;;;;1.60;1.50;;;;;;;26.90;100.00;99775.54;105235;1257;59758;-47
2023/06/24 11:12:37;;;;;;;2.20;2.00;;;;;;;26.95;100.00;99775.09;106175;1260;59654;-49
2023/06/24 11:15:09;;;;;;;1.90;1.50;;;;;;;27.03;100.00;99767.95;105061;1260;73108;-48
2023/06/24 11:17:37;;;;;;;3.20;2.20;;;;;;;27.10;100.00;99769.83;105145;1264;67545;-52
2023/06/24 11:20:08;;;;;;;3.50;1.60;;;;;;;27.14;100.00;99767.56;105462;1257;71184;-48
2023/06/24 11:22:36;;;;;;;1.50;1.40;;;;;;;27.19;100.00;99768.16;105216;1257;60723;-48
2023/06/24 11:25:03;;;;;;;2.50;1.30;;;;;;;27.23;100.00;99768.20;105063;1260;59564;-51